CPA9001 RJGG-RJTT
Flight info
| Callsign | CPA9001 |
|---|---|
| Flight time | 0h 53m |
| Altitude | 17000 |
| Route | BOGON Y23 ARTIC Y71 XAC |
| Aircraft | B77W/H-SDE1E2E3FGHIJ2J3J4J5M1RWXY/LB1D1 |
Departure
| Time | 2026-05-06 12:42 |
|---|---|
| Airport | Chubu Centrair International Airport (RJGG) |
Arrival
| Time | 2026-05-06 13:35 |
|---|---|
| Airport | Tokyo Haneda International Airport (RJTT) |
| Time | Latitude | Longitude | Altitude | Speed | Heading |
|---|---|---|---|---|---|
| 2026-05-06 12:27 | 34.85776 | 136.81174 | 33 ft | 0 kts | 348° |
| 2026-05-06 12:33 | 34.85761 | 136.81178 | 32 ft | 2 kts | 348° |
| 2026-05-06 12:33 | 34.85745 | 136.81182 | 32 ft | 2 kts | 348° |
| 2026-05-06 12:33 | 34.85728 | 136.81186 | 31 ft | 2 kts | 348° |
| 2026-05-06 12:34 | 34.85712 | 136.81190 | 32 ft | 2 kts | 349° |
| 2026-05-06 12:34 | 34.85698 | 136.81199 | 30 ft | 2 kts | 303° |
| 2026-05-06 12:34 | 34.85692 | 136.81217 | 31 ft | 2 kts | 269° |
| 2026-05-06 12:34 | 34.85692 | 136.81221 | 31 ft | 0 kts | 262° |
| 2026-05-06 12:36 | 34.85691 | 136.81211 | 31 ft | 3 kts | 261° |
| 2026-05-06 12:36 | 34.85686 | 136.81177 | 30 ft | 5 kts | 258° |
| 2026-05-06 12:37 | 34.85677 | 136.81124 | 31 ft | 7 kts | 258° |
| 2026-05-06 12:37 | 34.85665 | 136.81054 | 33 ft | 10 kts | 259° |
| 2026-05-06 12:37 | 34.85653 | 136.80976 | 33 ft | 8 kts | 253° |
| 2026-05-06 12:37 | 34.85605 | 136.80949 | 33 ft | 9 kts | 172° |
| 2026-05-06 12:38 | 34.85537 | 136.80965 | 33 ft | 11 kts | 168° |
| 2026-05-06 12:38 | 34.85456 | 136.80984 | 33 ft | 13 kts | 169° |
| 2026-05-06 12:38 | 34.85353 | 136.81008 | 33 ft | 18 kts | 168° |
| 2026-05-06 12:38 | 34.85209 | 136.81044 | 33 ft | 24 kts | 168° |
| 2026-05-06 12:39 | 34.85042 | 136.81085 | 33 ft | 25 kts | 168° |
| 2026-05-06 12:39 | 34.84866 | 136.81128 | 33 ft | 26 kts | 169° |
| 2026-05-06 12:39 | 34.84689 | 136.81170 | 33 ft | 26 kts | 169° |
| 2026-05-06 12:39 | 34.84521 | 136.81210 | 33 ft | 16 kts | 168° |
| 2026-05-06 12:40 | 34.84471 | 136.81214 | 33 ft | 6 kts | 202° |
| 2026-05-06 12:40 | 34.84444 | 136.81166 | 33 ft | 8 kts | 249° |
| 2026-05-06 12:40 | 34.84428 | 136.81091 | 32 ft | 10 kts | 258° |
| 2026-05-06 12:40 | 34.84412 | 136.80993 | 31 ft | 14 kts | 259° |
| 2026-05-06 12:41 | 34.84401 | 136.80906 | 30 ft | 7 kts | 263° |
| 2026-05-06 12:41 | 34.84435 | 136.80872 | 30 ft | 7 kts | 345° |
| 2026-05-06 12:41 | 34.84441 | 136.80871 | 30 ft | 0 kts | 349° |
| 2026-05-06 12:41 | 34.84548 | 136.80846 | 30 ft | 56 kts | 349° |
| 2026-05-06 12:42 | 34.85278 | 136.80671 | 33 ft | 151 kts | 348° |
| 2026-05-06 12:42 | 34.86479 | 136.80378 | 577 ft | 181 kts | 348° |
| 2026-05-06 12:42 | 34.87679 | 136.79989 | 1779 ft | 181 kts | 337° |
| 2026-05-06 12:42 | 34.88700 | 136.78925 | 2390 ft | 213 kts | 301° |
| 2026-05-06 12:43 | 34.89026 | 136.77730 | 2633 ft | 238 kts | 273° |
| 2026-05-06 12:43 | 34.88559 | 136.75737 | 3302 ft | 254 kts | 230° |
| 2026-05-06 12:43 | 34.86728 | 136.74007 | 4852 ft | 254 kts | 212° |
| 2026-05-06 12:43 | 34.85745 | 136.73212 | 5575 ft | 258 kts | 214° |
| 2026-05-06 12:44 | 34.84249 | 136.71971 | 6696 ft | 261 kts | 208° |
| 2026-05-06 12:44 | 34.82467 | 136.71415 | 7626 ft | 272 kts | 183° |
| 2026-05-06 12:44 | 34.80558 | 136.71676 | 8734 ft | 279 kts | 171° |
| 2026-05-06 12:44 | 34.78632 | 136.72149 | 9839 ft | 286 kts | 171° |
| 2026-05-06 12:45 | 34.76735 | 136.72998 | 10644 ft | 303 kts | 149° |
| 2026-05-06 12:45 | 34.75202 | 136.74960 | 11039 ft | 339 kts | 124° |
| 2026-05-06 12:45 | 34.72772 | 136.80466 | 11968 ft | 394 kts | 120° |
| 2026-05-06 12:46 | 34.71460 | 136.83437 | 13170 ft | 401 kts | 120° |
| 2026-05-06 12:46 | 34.70104 | 136.86436 | 14430 ft | 407 kts | 121° |
| 2026-05-06 12:46 | 34.68714 | 136.89471 | 15500 ft | 416 kts | 121° |
| 2026-05-06 12:46 | 34.67473 | 136.92683 | 16411 ft | 428 kts | 108° |
| 2026-05-06 12:47 | 34.66935 | 136.96271 | 17090 ft | 437 kts | 98° |
| 2026-05-06 12:47 | 34.66577 | 137.00019 | 17136 ft | 453 kts | 97° |
| 2026-05-06 12:47 | 34.66220 | 137.03813 | 17129 ft | 458 kts | 98° |
| 2026-05-06 12:47 | 34.65833 | 137.07651 | 17127 ft | 457 kts | 98° |
| 2026-05-06 12:48 | 34.65418 | 137.11476 | 17127 ft | 456 kts | 99° |
| 2026-05-06 12:48 | 34.64982 | 137.15284 | 17127 ft | 455 kts | 99° |
| 2026-05-06 12:48 | 34.64534 | 137.19094 | 17131 ft | 455 kts | 99° |
| 2026-05-06 12:48 | 34.64083 | 137.22899 | 17125 ft | 455 kts | 99° |
| 2026-05-06 12:49 | 34.63633 | 137.26713 | 17125 ft | 455 kts | 99° |
| 2026-05-06 12:49 | 34.63186 | 137.30515 | 17123 ft | 455 kts | 99° |
| 2026-05-06 12:49 | 34.62738 | 137.34312 | 17125 ft | 454 kts | 99° |
| 2026-05-06 12:49 | 34.62184 | 137.38065 | 17109 ft | 446 kts | 107° |
| 2026-05-06 12:50 | 34.61029 | 137.41601 | 17140 ft | 454 kts | 117° |
| 2026-05-06 12:50 | 34.59669 | 137.45011 | 17132 ft | 454 kts | 117° |
| 2026-05-06 12:50 | 34.58315 | 137.48472 | 17125 ft | 452 kts | 116° |
| 2026-05-06 12:50 | 34.57010 | 137.51964 | 17122 ft | 452 kts | 115° |
| 2026-05-06 12:51 | 34.55739 | 137.55464 | 17112 ft | 451 kts | 116° |
| 2026-05-06 12:51 | 34.54557 | 137.58946 | 17117 ft | 453 kts | 110° |
| 2026-05-06 12:51 | 34.54029 | 137.62716 | 17119 ft | 453 kts | 91° |
| 2026-05-06 12:51 | 34.54115 | 137.66576 | 17136 ft | 462 kts | 88° |
| 2026-05-06 12:52 | 34.54225 | 137.70492 | 17132 ft | 464 kts | 89° |
| 2026-05-06 12:52 | 34.54297 | 137.74406 | 17132 ft | 464 kts | 89° |
| 2026-05-06 12:52 | 34.54339 | 137.78324 | 17128 ft | 463 kts | 90° |
| 2026-05-06 12:52 | 34.54357 | 137.82222 | 17133 ft | 462 kts | 90° |
| 2026-05-06 12:53 | 34.54361 | 137.86127 | 17131 ft | 462 kts | 90° |
| 2026-05-06 12:53 | 34.54358 | 137.90027 | 17129 ft | 461 kts | 90° |
| 2026-05-06 12:53 | 34.54352 | 137.93872 | 17130 ft | 461 kts | 90° |
| 2026-05-06 12:53 | 34.54348 | 137.97771 | 17117 ft | 461 kts | 90° |
| 2026-05-06 12:54 | 34.54349 | 138.01713 | 17131 ft | 474 kts | 91° |
| 2026-05-06 12:54 | 34.54349 | 138.05728 | 17142 ft | 475 kts | 91° |
| 2026-05-06 12:54 | 34.54349 | 138.09731 | 17133 ft | 474 kts | 91° |
| 2026-05-06 12:54 | 34.54345 | 138.13726 | 17128 ft | 473 kts | 91° |
| 2026-05-06 12:55 | 34.54335 | 138.17674 | 17130 ft | 472 kts | 91° |
| 2026-05-06 12:55 | 34.54320 | 138.21652 | 17129 ft | 471 kts | 91° |
| 2026-05-06 12:55 | 34.54301 | 138.25641 | 17131 ft | 472 kts | 91° |
| 2026-05-06 12:55 | 34.54287 | 138.29630 | 17136 ft | 473 kts | 91° |
| 2026-05-06 12:56 | 34.54306 | 138.33628 | 17141 ft | 474 kts | 88° |
| 2026-05-06 12:56 | 34.54724 | 138.37607 | 17138 ft | 476 kts | 78° |
| 2026-05-06 12:56 | 34.55597 | 138.41481 | 17140 ft | 477 kts | 70° |
| 2026-05-06 12:56 | 34.56855 | 138.45150 | 17128 ft | 474 kts | 62° |
| 2026-05-06 12:57 | 34.58381 | 138.48721 | 17134 ft | 476 kts | 61° |
| 2026-05-06 12:57 | 34.59923 | 138.52286 | 17140 ft | 478 kts | 61° |
| 2026-05-06 12:57 | 34.61463 | 138.55883 | 17147 ft | 479 kts | 61° |
| 2026-05-06 12:57 | 34.62984 | 138.59498 | 17149 ft | 480 kts | 61° |
| 2026-05-06 12:58 | 34.64491 | 138.63128 | 17141 ft | 481 kts | 62° |
| 2026-05-06 12:58 | 34.65968 | 138.66732 | 17145 ft | 481 kts | 62° |
| 2026-05-06 12:58 | 34.67459 | 138.70382 | 17140 ft | 479 kts | 62° |
| 2026-05-06 12:58 | 34.68931 | 138.73962 | 17066 ft | 468 kts | 62° |
| 2026-05-06 12:59 | 34.70262 | 138.77491 | 16722 ft | 454 kts | 68° |
| 2026-05-06 12:59 | 34.71125 | 138.81167 | 16467 ft | 450 kts | 78° |
| 2026-05-06 12:59 | 34.71686 | 138.84887 | 16307 ft | 443 kts | 79° |
| 2026-05-06 12:59 | 34.72267 | 138.88551 | 16072 ft | 439 kts | 79° |
| 2026-05-06 13:00 | 34.72852 | 138.92188 | 15799 ft | 437 kts | 79° |
| 2026-05-06 13:00 | 34.73418 | 138.95760 | 15514 ft | 435 kts | 79° |
| 2026-05-06 13:00 | 34.73979 | 138.99366 | 15207 ft | 430 kts | 79° |
| 2026-05-06 13:00 | 34.74521 | 139.02948 | 14892 ft | 429 kts | 79° |
| 2026-05-06 13:01 | 34.75050 | 139.06514 | 14630 ft | 426 kts | 79° |
| 2026-05-06 13:01 | 34.75573 | 139.10058 | 14399 ft | 423 kts | 80° |
| 2026-05-06 13:01 | 34.76088 | 139.13559 | 14205 ft | 419 kts | 79° |
| 2026-05-06 13:01 | 34.76601 | 139.17042 | 13983 ft | 416 kts | 79° |
| 2026-05-06 13:02 | 34.77103 | 139.20460 | 13686 ft | 415 kts | 80° |
| 2026-05-06 13:02 | 34.77611 | 139.23917 | 13415 ft | 413 kts | 80° |
| 2026-05-06 13:02 | 34.78113 | 139.27350 | 13149 ft | 411 kts | 80° |
| 2026-05-06 13:02 | 34.78613 | 139.30782 | 13083 ft | 408 kts | 80° |
| 2026-05-06 13:03 | 34.79104 | 139.34150 | 13027 ft | 409 kts | 80° |
| 2026-05-06 13:03 | 34.79601 | 139.37570 | 13025 ft | 410 kts | 80° |
| 2026-05-06 13:03 | 34.80094 | 139.40981 | 13014 ft | 410 kts | 80° |
| 2026-05-06 13:03 | 34.80588 | 139.44403 | 13013 ft | 410 kts | 79° |
| 2026-05-06 13:04 | 34.81361 | 139.47726 | 12922 ft | 407 kts | 65° |
| 2026-05-06 13:04 | 34.82834 | 139.50649 | 12606 ft | 405 kts | 50° |
| 2026-05-06 13:04 | 34.84726 | 139.53157 | 12153 ft | 398 kts | 40° |
| 2026-05-06 13:04 | 34.86798 | 139.55404 | 11556 ft | 400 kts | 38° |
| 2026-05-06 13:05 | 34.88905 | 139.57632 | 11229 ft | 400 kts | 38° |
| 2026-05-06 13:05 | 34.90996 | 139.59852 | 11014 ft | 396 kts | 39° |
| 2026-05-06 13:05 | 34.93021 | 139.62029 | 10862 ft | 377 kts | 39° |
| 2026-05-06 13:05 | 34.94898 | 139.64066 | 10717 ft | 355 kts | 39° |
| 2026-05-06 13:06 | 34.96688 | 139.66015 | 10590 ft | 336 kts | 39° |
| 2026-05-06 13:06 | 34.98395 | 139.67879 | 10437 ft | 324 kts | 38° |
| 2026-05-06 13:06 | 35.00053 | 139.69694 | 10304 ft | 316 kts | 38° |
| 2026-05-06 13:06 | 35.01671 | 139.71473 | 10106 ft | 310 kts | 38° |
| 2026-05-06 13:07 | 35.03268 | 139.73234 | 9805 ft | 308 kts | 39° |
| 2026-05-06 13:07 | 35.04859 | 139.74995 | 9479 ft | 307 kts | 39° |
| 2026-05-06 13:07 | 35.06440 | 139.76749 | 9161 ft | 306 kts | 39° |
| 2026-05-06 13:07 | 35.08012 | 139.78495 | 8875 ft | 305 kts | 39° |
| 2026-05-06 13:08 | 35.09574 | 139.80232 | 8608 ft | 302 kts | 39° |
| 2026-05-06 13:08 | 35.11091 | 139.81920 | 8432 ft | 295 kts | 38° |
| 2026-05-06 13:08 | 35.12592 | 139.83590 | 8247 ft | 289 kts | 38° |
| 2026-05-06 13:08 | 35.14078 | 139.85242 | 7814 ft | 288 kts | 38° |
| 2026-05-06 13:09 | 35.15561 | 139.86902 | 7389 ft | 286 kts | 39° |
| 2026-05-06 13:09 | 35.17019 | 139.88536 | 6965 ft | 283 kts | 39° |
| 2026-05-06 13:09 | 35.18465 | 139.90162 | 6528 ft | 279 kts | 39° |
| 2026-05-06 13:09 | 35.19888 | 139.91751 | 6055 ft | 275 kts | 39° |
| 2026-05-06 13:10 | 35.21285 | 139.93308 | 5625 ft | 274 kts | 39° |
| 2026-05-06 13:10 | 35.22682 | 139.94852 | 5195 ft | 268 kts | 39° |
| 2026-05-06 13:10 | 35.24079 | 139.96388 | 5017 ft | 275 kts | 39° |
| 2026-05-06 13:10 | 35.25676 | 139.97631 | 5009 ft | 271 kts | 11° |
| 2026-05-06 13:11 | 35.27453 | 139.97525 | 4990 ft | 251 kts | 328° |
| 2026-05-06 13:11 | 35.28854 | 139.96298 | 4963 ft | 250 kts | 315° |
| 2026-05-06 13:11 | 35.30319 | 139.95065 | 4694 ft | 259 kts | 322° |
| 2026-05-06 13:11 | 35.31861 | 139.93964 | 4384 ft | 249 kts | 323° |
| 2026-05-06 13:12 | 35.33309 | 139.92955 | 4071 ft | 236 kts | 323° |
| 2026-05-06 13:12 | 35.34705 | 139.91972 | 3743 ft | 224 kts | 322° |
| 2026-05-06 13:12 | 35.36029 | 139.91042 | 3439 ft | 213 kts | 322° |
| 2026-05-06 13:12 | 35.37279 | 139.90160 | 3180 ft | 202 kts | 321° |
| 2026-05-06 13:13 | 35.38470 | 139.89313 | 3058 ft | 197 kts | 321° |
| 2026-05-06 13:13 | 35.39676 | 139.88456 | 3022 ft | 200 kts | 321° |
| 2026-05-06 13:13 | 35.40865 | 139.87618 | 2876 ft | 199 kts | 321° |
| 2026-05-06 13:13 | 35.42024 | 139.86801 | 2617 ft | 183 kts | 320° |
| 2026-05-06 13:14 | 35.43094 | 139.86039 | 2380 ft | 176 kts | 319° |
| 2026-05-06 13:14 | 35.44161 | 139.85281 | 2172 ft | 176 kts | 320° |
| 2026-05-06 13:14 | 35.45227 | 139.84531 | 1914 ft | 176 kts | 320° |
| 2026-05-06 13:14 | 35.46273 | 139.83791 | 1678 ft | 175 kts | 321° |
| 2026-05-06 13:15 | 35.47324 | 139.83049 | 1453 ft | 169 kts | 321° |
| 2026-05-06 13:15 | 35.48303 | 139.82353 | 1214 ft | 154 kts | 319° |
| 2026-05-06 13:15 | 35.49210 | 139.81707 | 1037 ft | 150 kts | 319° |
| 2026-05-06 13:15 | 35.50113 | 139.81068 | 847 ft | 151 kts | 321° |
| 2026-05-06 13:16 | 35.51026 | 139.80421 | 742 ft | 153 kts | 328° |
| 2026-05-06 13:16 | 35.51950 | 139.79785 | 471 ft | 150 kts | 329° |
| 2026-05-06 13:16 | 35.52843 | 139.79135 | 249 ft | 151 kts | 329° |
| 2026-05-06 13:16 | 35.53784 | 139.78473 | 220 ft | 158 kts | 330° |
| 2026-05-06 13:17 | 35.54722 | 139.77846 | 980 ft | 150 kts | 330° |
| 2026-05-06 13:17 | 35.55696 | 139.77267 | 1849 ft | 163 kts | 332° |
| 2026-05-06 13:17 | 35.56814 | 139.76647 | 2544 ft | 189 kts | 330° |
| 2026-05-06 13:17 | 35.58019 | 139.75932 | 3450 ft | 202 kts | 319° |
| 2026-05-06 13:18 | 35.58774 | 139.74477 | 4201 ft | 214 kts | 274° |
| 2026-05-06 13:18 | 35.58461 | 139.72655 | 4888 ft | 226 kts | 236° |
| 2026-05-06 13:18 | 35.57253 | 139.71412 | 5058 ft | 245 kts | 201° |
| 2026-05-06 13:18 | 35.55519 | 139.71307 | 4971 ft | 258 kts | 166° |
| 2026-05-06 13:19 | 35.54057 | 139.72526 | 5023 ft | 264 kts | 133° |
| 2026-05-06 13:19 | 35.53258 | 139.74604 | 5234 ft | 277 kts | 111° |
| 2026-05-06 13:19 | 35.52647 | 139.76907 | 5081 ft | 284 kts | 112° |
| 2026-05-06 13:19 | 35.51796 | 139.79017 | 5015 ft | 270 kts | 134° |
| 2026-05-06 13:20 | 35.50531 | 139.80706 | 5013 ft | 270 kts | 134° |
| 2026-05-06 13:20 | 35.49166 | 139.82263 | 4995 ft | 269 kts | 154° |
| 2026-05-06 13:20 | 35.47410 | 139.82909 | 4993 ft | 261 kts | 181° |
| 2026-05-06 13:20 | 35.45643 | 139.82756 | 5002 ft | 256 kts | 190° |
| 2026-05-06 13:21 | 35.43880 | 139.82427 | 4989 ft | 254 kts | 192° |
| 2026-05-06 13:21 | 35.42131 | 139.82076 | 4987 ft | 253 kts | 192° |
| 2026-05-06 13:21 | 35.40398 | 139.81725 | 4993 ft | 252 kts | 192° |
| 2026-05-06 13:21 | 35.38670 | 139.81371 | 4993 ft | 251 kts | 192° |
| 2026-05-06 13:22 | 35.36937 | 139.81012 | 4993 ft | 251 kts | 192° |
| 2026-05-06 13:22 | 35.35236 | 139.80657 | 4997 ft | 251 kts | 192° |
| 2026-05-06 13:22 | 35.33504 | 139.80295 | 5001 ft | 252 kts | 192° |
| 2026-05-06 13:22 | 35.31770 | 139.79932 | 5005 ft | 253 kts | 192° |
| 2026-05-06 13:23 | 35.30023 | 139.79566 | 5007 ft | 254 kts | 192° |
| 2026-05-06 13:23 | 35.28866 | 139.79323 | 5008 ft | 255 kts | 192° |
| 2026-05-06 13:23 | 35.26543 | 139.78829 | 5002 ft | 256 kts | 192° |
| 2026-05-06 13:23 | 35.24784 | 139.78447 | 5005 ft | 256 kts | 192° |
| 2026-05-06 13:24 | 35.23617 | 139.78192 | 5009 ft | 256 kts | 192° |
| 2026-05-06 13:24 | 35.21862 | 139.77909 | 4995 ft | 253 kts | 180° |
| 2026-05-06 13:24 | 35.20162 | 139.78513 | 5006 ft | 260 kts | 153° |
| 2026-05-06 13:24 | 35.18700 | 139.79841 | 5013 ft | 264 kts | 144° |
| 2026-05-06 13:25 | 35.17291 | 139.81321 | 5006 ft | 268 kts | 143° |
| 2026-05-06 13:25 | 35.15901 | 139.82810 | 5006 ft | 270 kts | 142° |
| 2026-05-06 13:25 | 35.14481 | 139.84335 | 5009 ft | 273 kts | 142° |
| 2026-05-06 13:25 | 35.13054 | 139.85871 | 5006 ft | 273 kts | 142° |
| 2026-05-06 13:26 | 35.11822 | 139.87616 | 4991 ft | 273 kts | 121° |
| 2026-05-06 13:26 | 35.11342 | 139.89865 | 4993 ft | 279 kts | 94° |
| 2026-05-06 13:26 | 35.11728 | 139.92200 | 5002 ft | 284 kts | 67° |
| 2026-05-06 13:26 | 35.12887 | 139.94107 | 5001 ft | 286 kts | 40° |
| 2026-05-06 13:27 | 35.14628 | 139.95266 | 5009 ft | 283 kts | 14° |
| 2026-05-06 13:27 | 35.16541 | 139.95796 | 5020 ft | 284 kts | 10° |
| 2026-05-06 13:27 | 35.18486 | 139.96314 | 5007 ft | 287 kts | 10° |
| 2026-05-06 13:27 | 35.20430 | 139.96847 | 4999 ft | 289 kts | 11° |
| 2026-05-06 13:28 | 35.22377 | 139.97390 | 4994 ft | 282 kts | 11° |
| 2026-05-06 13:28 | 35.24266 | 139.97913 | 4804 ft | 272 kts | 7° |
| 2026-05-06 13:28 | 35.26082 | 139.97833 | 4560 ft | 256 kts | 341° |
| 2026-05-06 13:28 | 35.27685 | 139.97022 | 4382 ft | 245 kts | 327° |
| 2026-05-06 13:29 | 35.29151 | 139.95992 | 4151 ft | 240 kts | 325° |
| 2026-05-06 13:29 | 35.30560 | 139.94970 | 4069 ft | 231 kts | 325° |
| 2026-05-06 13:29 | 35.31943 | 139.93981 | 4014 ft | 229 kts | 325° |
| 2026-05-06 13:29 | 35.33313 | 139.93009 | 4007 ft | 223 kts | 326° |
| 2026-05-06 13:30 | 35.34641 | 139.92067 | 4009 ft | 218 kts | 324° |
| 2026-05-06 13:30 | 35.35913 | 139.91157 | 3962 ft | 207 kts | 324° |
| 2026-05-06 13:30 | 35.37142 | 139.90296 | 3746 ft | 204 kts | 325° |
| 2026-05-06 13:30 | 35.38373 | 139.89426 | 3437 ft | 201 kts | 325° |
| 2026-05-06 13:31 | 35.39544 | 139.88597 | 3185 ft | 187 kts | 324° |
| 2026-05-06 13:31 | 35.40677 | 139.87789 | 2918 ft | 188 kts | 324° |
| 2026-05-06 13:31 | 35.41787 | 139.87002 | 2668 ft | 179 kts | 324° |
| 2026-05-06 13:31 | 35.42838 | 139.86255 | 2444 ft | 176 kts | 324° |
| 2026-05-06 13:32 | 35.43899 | 139.85501 | 2207 ft | 175 kts | 324° |
| 2026-05-06 13:32 | 35.44952 | 139.84754 | 1977 ft | 174 kts | 324° |
| 2026-05-06 13:32 | 35.45999 | 139.84009 | 1730 ft | 173 kts | 325° |
| 2026-05-06 13:32 | 35.47035 | 139.83273 | 1510 ft | 174 kts | 326° |
| 2026-05-06 13:33 | 35.48062 | 139.82545 | 1302 ft | 164 kts | 326° |
| 2026-05-06 13:33 | 35.49018 | 139.81866 | 1066 ft | 151 kts | 326° |
| 2026-05-06 13:33 | 35.49915 | 139.81227 | 904 ft | 150 kts | 326° |
| 2026-05-06 13:33 | 35.50813 | 139.80584 | 693 ft | 152 kts | 326° |
| 2026-05-06 13:34 | 35.51738 | 139.79927 | 531 ft | 151 kts | 328° |
| 2026-05-06 13:34 | 35.52636 | 139.79304 | 307 ft | 145 kts | 327° |
| 2026-05-06 13:34 | 35.53492 | 139.78680 | 118 ft | 146 kts | 330° |
| 2026-05-06 13:34 | 35.54356 | 139.78068 | 30 ft | 128 kts | 330° |
| 2026-05-06 13:35 | 35.54967 | 139.77638 | 30 ft | 75 kts | 330° |
| 2026-05-06 13:35 | 35.55309 | 139.77398 | 30 ft | 51 kts | 330° |
| 2026-05-06 13:35 | 35.55482 | 139.77204 | 29 ft | 20 kts | 307° |
| 2026-05-06 13:35 | 35.55524 | 139.77119 | 28 ft | 9 kts | 294° |
| 2026-05-06 13:36 | 35.55508 | 139.77052 | 28 ft | 9 kts | 220° |
| 2026-05-06 13:36 | 35.55443 | 139.77044 | 28 ft | 10 kts | 162° |
| 2026-05-06 13:36 | 35.55378 | 139.77089 | 28 ft | 12 kts | 148° |
| 2026-05-06 13:36 | 35.55306 | 139.77144 | 28 ft | 13 kts | 148° |
| 2026-05-06 13:37 | 35.55222 | 139.77202 | 28 ft | 14 kts | 152° |
| 2026-05-06 13:37 | 35.55132 | 139.77266 | 28 ft | 16 kts | 149° |
| 2026-05-06 13:37 | 35.55033 | 139.77336 | 28 ft | 17 kts | 150° |
| 2026-05-06 13:37 | 35.54929 | 139.77408 | 28 ft | 18 kts | 150° |
| 2026-05-06 13:38 | 35.54827 | 139.77483 | 28 ft | 17 kts | 149° |
| 2026-05-06 13:38 | 35.54756 | 139.77533 | 28 ft | 8 kts | 152° |
| 2026-05-06 13:38 | 35.54704 | 139.77521 | 28 ft | 8 kts | 223° |
| 2026-05-06 13:38 | 35.54663 | 139.77484 | 28 ft | 5 kts | 184° |
| 2026-05-06 13:39 | 35.54625 | 139.77499 | 28 ft | 7 kts | 154° |
| 2026-05-06 13:39 | 35.54577 | 139.77532 | 28 ft | 9 kts | 150° |
| 2026-05-06 13:39 | 35.54531 | 139.77532 | 28 ft | 7 kts | 222° |
| 2026-05-06 13:39 | 35.54502 | 139.77473 | 28 ft | 5 kts | 241° |
| 2026-05-06 13:40 | 35.54501 | 139.77471 | 28 ft | 0 kts | 241° |